Kahuku, Hawaii
Current Conditions -  °F | °C
As of 3:58 AM on Thursday 29 Jan 2015 (Local Time) from PHHI Reporting Station
Few Clouds Few Clouds  
Wind Chill: 68°   Ceiling: Unl
Heat Index: 68°   Visibility: 10mi
Dew Point: 66°   Wind: 2mph
Humidity: 94%   Direction: 150°SSE
Pressure: 29.9"   Gusts: NA
Location:  21.67°N, 157.94°W
Report Text: PHHI 291358Z AUTO 15002KT 10SM FEW013 20/19 A2990 RMK AO2 RAB1330E1342DZB1342E1346 SLP116 P0000 T02000190 $
Loading
Personal Weather Stations






























Interactive Weather Map New forecast layout! Learn more

10-Day Weather Forecast

Advertisements
Track Severe Weather on mobile